createdAt,value
2023-04-07T00:02:07.017Z,100153.16
2023-04-07T00:04:33.730Z,100149.59
2023-04-07T00:07:00.521Z,100152.25
2023-04-07T00:09:27.093Z,100154.78
2023-04-07T00:11:53.739Z,100151.28
2023-04-07T00:14:22.643Z,100156.78
2023-04-07T00:16:49.265Z,100149.66
2023-04-07T00:19:15.822Z,100145.31
2023-04-07T00:21:42.432Z,100143.47
2023-04-07T00:24:09.020Z,100141.78
2023-04-07T00:26:35.608Z,100146.16
2023-04-07T00:29:02.167Z,100141.88
2023-04-07T00:31:28.786Z,100137.41
2023-04-07T00:33:57.765Z,100134.66
2023-04-07T00:36:24.476Z,100140.00
2023-04-07T00:38:51.049Z,100144.34
2023-04-07T00:41:17.756Z,100136.38
2023-04-07T00:43:44.360Z,100130.97
2023-04-07T00:46:11.040Z,100132.00
2023-04-07T00:48:38.028Z,100133.72
2023-04-07T00:51:06.804Z,100130.19
2023-04-07T00:53:33.609Z,100133.72
2023-04-07T00:56:00.311Z,100125.53
2023-04-07T00:58:26.966Z,100128.97
2023-04-07T01:01:09.513Z,100127.13
2023-04-07T01:03:52.716Z,100126.09
2023-04-07T01:06:24.216Z,100117.94
2023-04-07T01:09:07.767Z,100116.22
2023-04-07T01:11:44.345Z,100114.41
2023-04-07T01:14:15.898Z,100109.00
2023-04-07T01:16:46.836Z,100112.41
2023-04-07T01:19:37.284Z,100116.69
2023-04-07T01:22:11.018Z,100117.63
2023-04-07T01:25:14.402Z,100111.44
2023-04-07T01:27:49.530Z,100109.00
2023-04-07T01:30:18.019Z,100109.09
2023-04-07T01:32:50.414Z,100110.78
2023-04-07T01:35:18.514Z,100094.81
2023-04-07T01:37:48.840Z,100094.72
2023-04-07T01:40:16.430Z,100101.00
2023-04-07T01:42:43.193Z,100097.47
2023-04-07T01:45:11.442Z,100101.75
2023-04-07T01:47:39.370Z,100094.00
2023-04-07T01:50:09.350Z,100095.88
2023-04-07T01:52:36.987Z,100104.72
2023-04-07T01:55:07.545Z,100096.53
2023-04-07T01:57:34.135Z,100098.34
2023-04-07T02:00:00.999Z,100100.16
2023-04-07T02:02:28.982Z,100101.97
2023-04-07T02:04:56.964Z,100099.31
2023-04-07T02:07:58.037Z,100104.63
2023-04-07T02:10:26.988Z,100104.63
2023-04-07T02:12:56.077Z,100098.66
2023-04-07T02:15:24.106Z,100097.03
2023-04-07T02:17:53.626Z,100092.75
2023-04-07T02:20:21.901Z,100097.13
2023-04-07T02:22:48.612Z,100101.19
2023-04-07T02:25:21.242Z,100101.19
2023-04-07T02:27:47.812Z,100101.09
2023-04-07T02:30:14.715Z,100095.03
2023-04-07T02:32:41.495Z,100096.81
2023-04-07T02:35:08.457Z,100097.97
2023-04-07T02:37:35.496Z,100094.66
2023-04-07T02:40:03.196Z,100098.25
2023-04-07T02:42:29.804Z,100103.66
2023-04-07T02:44:56.665Z,100100.66
2023-04-07T02:47:23.706Z,100099.91
2023-04-07T02:49:50.277Z,100096.06
2023-04-07T02:52:17.347Z,100093.31
2023-04-07T02:54:44.045Z,100090.00
2023-04-07T02:57:10.776Z,100098.94
2023-04-07T02:59:37.342Z,100097.41
2023-04-07T03:02:06.374Z,100100.81
2023-04-07T03:04:33.369Z,100097.50
2023-04-07T03:07:00.631Z,100089.66
2023-04-07T03:09:27.420Z,100088.69
2023-04-07T03:11:54.176Z,100084.34
2023-04-07T03:14:21.226Z,100094.75
2023-04-07T03:16:48.027Z,100093.81
2023-04-07T03:19:14.657Z,100099.25
2023-04-07T03:21:41.335Z,100092.97
2023-04-07T03:24:08.357Z,100100.94
2023-04-07T03:26:35.308Z,100095.50
2023-04-07T03:29:01.906Z,100092.09
2023-04-07T03:31:28.447Z,100091.06
2023-04-07T03:33:55.104Z,100083.75
2023-04-07T03:36:22.373Z,100079.84
2023-04-07T03:38:48.983Z,100083.56
2023-04-07T03:41:15.632Z,100091.25
2023-04-07T03:43:42.233Z,100096.66
2023-04-07T03:46:11.726Z,100088.66
2023-04-07T03:48:38.339Z,100094.06
2023-04-07T03:51:04.981Z,100092.19
2023-04-07T03:53:32.337Z,100091.25
2023-04-07T03:55:59.241Z,100089.63
2023-04-07T03:58:25.947Z,100092.50
2023-04-07T04:00:52.499Z,100097.13
2023-04-07T04:03:19.211Z,100101.91
2023-04-07T04:05:46.390Z,100100.47
2023-04-07T04:08:13.033Z,100107.47
2023-04-07T04:10:39.599Z,100104.81
2023-04-07T04:13:07.949Z,100112.13
2023-04-07T04:15:34.588Z,100113.00
2023-04-07T04:18:01.336Z,100106.91
2023-04-07T04:20:27.958Z,100120.19
2023-04-07T04:22:54.568Z,100115.75
2023-04-07T04:25:21.316Z,100115.09
2023-04-07T04:27:48.014Z,100116.97
2023-04-07T04:30:14.722Z,100114.03
2023-04-07T04:32:41.354Z,100121.81
2023-04-07T04:35:08.637Z,100128.00
2023-04-07T04:37:35.626Z,100122.69
2023-04-07T04:40:02.237Z,100120.59
2023-04-07T04:42:28.798Z,100118.53
2023-04-07T04:44:55.402Z,100116.44
2023-04-07T04:47:22.122Z,100119.75
2023-04-07T04:49:48.715Z,100121.38
2023-04-07T04:52:15.314Z,100125.72
2023-04-07T04:54:42.026Z,100137.13
2023-04-07T04:57:08.588Z,100132.00
2023-04-07T04:59:35.299Z,100139.03
2023-04-07T05:02:01.987Z,100137.03
2023-04-07T05:04:28.878Z,100138.00
2023-04-07T05:06:55.772Z,100135.13
2023-04-07T05:09:22.419Z,100129.06
2023-04-07T05:11:49.025Z,100129.88
2023-04-07T05:14:15.817Z,100144.91
2023-04-07T05:16:42.419Z,100151.84
2023-04-07T05:19:09.068Z,100142.06
2023-04-07T05:21:35.620Z,100147.94
2023-04-07T05:24:02.373Z,100151.19
2023-04-07T05:26:28.943Z,100150.22
2023-04-07T05:28:55.563Z,100150.97
2023-04-07T05:31:22.400Z,100153.34
2023-04-07T05:33:49.238Z,100158.28
2023-04-07T05:36:16.166Z,100149.25
2023-04-07T05:38:42.942Z,100151.53
2023-04-07T05:41:09.501Z,100155.69
2023-04-07T05:43:36.047Z,100155.50
2023-04-07T05:46:02.678Z,100155.09
2023-04-07T05:48:29.261Z,100162.91
2023-04-07T05:50:56.040Z,100161.75
2023-04-07T05:53:22.686Z,100153.66
2023-04-07T05:55:49.212Z,100153.25
2023-04-07T05:58:16.404Z,100150.97
2023-04-07T06:00:42.994Z,100150.34
2023-04-07T06:03:09.746Z,100165.09
2023-04-07T06:05:36.530Z,100164.03
2023-04-07T06:08:03.211Z,100162.75
2023-04-07T06:10:29.791Z,100159.59
2023-04-07T06:12:56.532Z,100160.88
2023-04-07T06:15:24.122Z,100156.00
2023-04-07T06:17:50.909Z,100160.06
2023-04-07T06:20:17.720Z,100153.34
2023-04-07T06:22:44.517Z,100149.44
2023-04-07T06:25:11.696Z,100149.00
2023-04-07T06:27:38.368Z,100146.88
2023-04-07T06:30:05.704Z,100152.75
2023-04-07T06:32:33.470Z,100153.31
2023-04-07T06:35:00.167Z,100166.31
2023-04-07T06:37:26.877Z,100159.69
2023-04-07T06:39:53.491Z,100168.22
2023-04-07T06:42:21.340Z,100167.16
2023-04-07T06:44:47.997Z,100167.91
2023-04-07T06:47:14.537Z,100172.06
2023-04-07T06:49:41.356Z,100175.06
2023-04-07T06:52:08.008Z,100178.72
2023-04-07T06:54:34.682Z,100177.00
2023-04-07T06:57:01.664Z,100178.72
2023-04-07T06:59:28.320Z,100184.78
2023-04-07T07:01:55.037Z,100193.41
2023-04-07T07:04:21.965Z,100191.72
2023-04-07T07:06:48.654Z,100194.47
2023-04-07T07:09:16.099Z,100199.72
2023-04-07T07:11:42.680Z,100198.75
2023-04-07T07:14:09.281Z,100201.41
2023-04-07T07:16:37.205Z,100210.28
2023-04-07T07:19:03.793Z,100211.34
2023-04-07T07:21:31.469Z,100211.56
2023-04-07T07:23:58.026Z,100218.50
2023-04-07T07:26:24.608Z,100224.06
2023-04-07T07:28:51.416Z,100223.00
2023-04-07T07:31:18.779Z,100232.69
2023-04-07T07:33:46.360Z,100231.94
2023-04-07T07:36:13.269Z,100231.00
2023-04-07T07:38:40.108Z,100232.81
2023-04-07T07:41:07.610Z,100240.81
2023-04-07T07:43:34.282Z,100239.53
2023-04-07T07:46:01.073Z,100240.19
2023-04-07T07:48:27.816Z,100237.19
2023-04-07T07:50:56.899Z,100234.28
2023-04-07T07:53:23.785Z,100241.38
2023-04-07T07:55:50.468Z,100243.91
2023-04-07T07:58:17.108Z,100252.78
2023-04-07T08:00:43.717Z,100248.31
2023-04-07T08:03:12.139Z,100255.75
2023-04-07T08:05:38.954Z,100264.75
2023-04-07T08:08:05.565Z,100263.78
2023-04-07T08:10:32.135Z,100267.28
2023-04-07T08:12:58.726Z,100264.50
2023-04-07T08:15:25.619Z,100256.56
2023-04-07T08:17:53.432Z,100264.03
2023-04-07T08:20:21.545Z,100269.56
2023-04-07T08:22:48.754Z,100266.59
2023-04-07T08:25:15.649Z,100261.00
2023-04-07T08:27:42.242Z,100268.81
2023-04-07T08:30:09.167Z,100260.25
2023-04-07T08:32:44.088Z,100264.81
2023-04-07T08:35:11.637Z,100266.31
2023-04-07T08:37:39.534Z,100273.38
2023-04-07T08:40:06.913Z,100264.72
2023-04-07T08:42:35.201Z,100266.66
2023-04-07T08:45:06.496Z,100270.06
2023-04-07T08:47:34.579Z,100273.88
2023-04-07T08:50:03.937Z,100266.28
2023-04-07T08:53:07.297Z,100265.47
2023-04-07T08:55:36.046Z,100264.78
2023-04-07T08:58:04.313Z,100268.09
2023-04-07T09:00:31.896Z,100263.97
2023-04-07T09:03:01.025Z,100270.81
2023-04-07T09:05:27.925Z,100268.41
2023-04-07T09:07:56.543Z,100268.19
2023-04-07T09:10:23.166Z,100264.75
2023-04-07T09:12:49.859Z,100264.25
2023-04-07T09:15:16.543Z,100270.06
2023-04-07T09:17:43.361Z,100269.84
2023-04-07T09:20:10.539Z,100269.47
2023-04-07T09:22:45.734Z,100269.47
2023-04-07T09:25:17.983Z,100267.38
2023-04-07T09:28:01.793Z,100268.72
2023-04-07T09:30:30.506Z,100274.75
2023-04-07T09:32:58.058Z,100278.13
2023-04-07T09:35:24.912Z,100275.59
2023-04-07T09:38:08.779Z,100274.97
2023-04-07T09:40:36.820Z,100279.44
2023-04-07T09:43:05.514Z,100283.44
2023-04-07T09:45:35.347Z,100281.84
2023-04-07T09:48:07.777Z,100281.91
2023-04-07T09:50:41.698Z,100273.94
2023-04-07T09:53:08.608Z,100283.00
2023-04-07T09:55:36.309Z,100277.72
2023-04-07T09:58:05.182Z,100275.56
2023-04-07T10:00:32.102Z,100276.34
2023-04-07T10:02:59.109Z,100276.50
2023-04-07T10:05:26.490Z,100268.63
2023-04-07T10:07:53.107Z,100268.97
2023-04-07T10:10:19.839Z,100264.13
2023-04-07T10:12:48.375Z,100278.47
2023-04-07T10:15:18.548Z,100276.81
2023-04-07T10:17:51.733Z,100271.56
2023-04-07T10:20:21.039Z,100272.69
2023-04-07T10:22:51.354Z,100281.47
2023-04-07T10:25:21.277Z,100274.53
2023-04-07T10:27:59.839Z,100281.19
2023-04-07T10:30:31.878Z,100277.78
2023-04-07T10:32:58.987Z,100277.06
2023-04-07T10:35:26.446Z,100276.44
2023-04-07T10:38:08.559Z,100278.03
2023-04-07T10:40:36.789Z,100278.28
2023-04-07T10:43:04.829Z,100281.69
2023-04-07T10:45:49.571Z,100279.75
2023-04-07T10:48:18.017Z,100276.94
2023-04-07T10:51:04.539Z,100279.59
2023-04-07T10:53:32.113Z,100275.00
2023-04-07T10:56:01.523Z,100276.69
2023-04-07T10:58:32.350Z,100288.00
2023-04-07T11:01:08.501Z,100285.94
2023-04-07T11:03:39.099Z,100286.50
2023-04-07T11:06:06.721Z,100291.72
2023-04-07T11:08:37.674Z,100287.59
2023-04-07T11:11:11.631Z,100288.41
2023-04-07T11:13:49.218Z,100288.25
2023-04-07T11:16:18.349Z,100280.94
2023-04-07T11:18:46.436Z,100288.75
2023-04-07T11:21:18.567Z,100283.31
2023-04-07T11:23:48.480Z,100293.03
2023-04-07T11:26:16.509Z,100291.28
2023-04-07T11:28:52.471Z,100290.78
2023-04-07T11:31:25.500Z,100291.75
2023-04-07T11:33:54.765Z,100290.88
2023-04-07T11:36:29.614Z,100287.25
2023-04-07T11:38:57.725Z,100284.19
2023-04-07T11:41:27.272Z,100287.50
2023-04-07T11:44:11.675Z,100289.53
2023-04-07T11:46:52.891Z,100284.66
2023-04-07T11:49:19.477Z,100285.59
2023-04-07T11:51:47.148Z,100284.75
2023-04-07T11:54:13.900Z,100288.28
2023-04-07T11:56:48.000Z,100287.94
2023-04-07T11:59:25.610Z,100289.09
2023-04-07T12:01:55.448Z,100299.22
2023-04-07T12:04:23.945Z,100290.06
2023-04-07T12:06:51.477Z,100292.63
2023-04-07T12:09:32.645Z,100288.97
2023-04-07T12:11:59.560Z,100291.34
2023-04-07T12:14:27.892Z,100288.50
2023-04-07T12:16:58.916Z,100291.19
2023-04-07T12:19:29.806Z,100289.28
2023-04-07T12:21:57.125Z,100280.16
2023-04-07T12:24:23.995Z,100284.06
2023-04-07T12:26:50.713Z,100277.50
2023-04-07T12:29:20.029Z,100274.94
2023-04-07T12:31:49.383Z,100279.31
2023-04-07T12:34:17.270Z,100276.13
2023-04-07T12:36:44.654Z,100280.53
2023-04-07T12:39:11.625Z,100267.13
2023-04-07T12:41:38.798Z,100277.38
2023-04-07T12:44:06.018Z,100271.66
2023-04-07T12:46:32.797Z,100275.66
2023-04-07T12:48:59.574Z,100280.44
2023-04-07T12:51:27.134Z,100277.56
2023-04-07T12:53:54.339Z,100284.03
2023-04-07T12:56:24.327Z,100282.56
2023-04-07T12:58:51.204Z,100285.84
2023-04-07T13:01:17.787Z,100289.22
2023-04-07T13:03:44.640Z,100278.88
2023-04-07T13:06:11.784Z,100289.81
2023-04-07T13:08:39.336Z,100284.13
2023-04-07T13:11:06.440Z,100283.25
2023-04-07T13:13:33.634Z,100288.50
2023-04-07T13:16:00.444Z,100285.94
2023-04-07T13:18:27.069Z,100288.72
2023-04-07T13:21:10.699Z,100285.28
2023-04-07T13:23:49.428Z,100283.38
2023-04-07T13:26:16.116Z,100287.84
2023-04-07T13:28:45.969Z,100288.47
2023-04-07T13:31:15.923Z,100282.13
2023-04-07T13:33:42.913Z,100282.91
2023-04-07T13:36:09.587Z,100277.41
2023-04-07T13:38:36.682Z,100284.13
2023-04-07T13:41:04.105Z,100275.59
2023-04-07T13:43:30.734Z,100283.38
2023-04-07T13:45:57.341Z,100284.13
2023-04-07T13:48:24.016Z,100284.03
2023-04-07T13:50:50.874Z,100287.16
2023-04-07T13:53:19.115Z,100291.91
2023-04-07T13:55:46.105Z,100294.72
2023-04-07T13:58:12.892Z,100298.22
2023-04-07T14:00:40.356Z,100297.88
2023-04-07T14:03:07.926Z,100301.38
2023-04-07T14:05:35.804Z,100298.81
2023-04-07T14:08:02.461Z,100301.63
2023-04-07T14:10:29.368Z,100296.50
2023-04-07T14:12:56.304Z,100301.25
2023-04-07T14:15:23.115Z,100287.25
2023-04-07T14:17:49.754Z,100293.78
2023-04-07T14:20:16.400Z,100292.09
2023-04-07T14:22:42.985Z,100295.84
2023-04-07T14:25:11.230Z,100294.88
2023-04-07T14:27:37.821Z,100294.78
2023-04-07T14:30:04.910Z,100303.53
2023-04-07T14:32:33.374Z,100309.97
2023-04-07T14:35:00.246Z,100305.09
2023-04-07T14:37:28.554Z,100300.09
2023-04-07T14:40:02.030Z,100301.19
2023-04-07T14:42:30.069Z,100299.47
2023-04-07T14:44:56.723Z,100302.03
2023-04-07T14:47:23.649Z,100301.78
2023-04-07T14:49:53.240Z,100304.34
2023-04-07T14:52:22.085Z,100302.41
2023-04-07T14:54:48.889Z,100309.59
2023-04-07T14:57:16.463Z,100310.56
2023-04-07T14:59:43.286Z,100305.94
2023-04-07T15:02:09.889Z,100310.22
2023-04-07T15:04:36.611Z,100307.44
2023-04-07T15:07:03.619Z,100311.53
2023-04-07T15:09:30.393Z,100308.47
2023-04-07T15:11:57.042Z,100309.56
2023-04-07T15:14:23.647Z,100311.38
2023-04-07T15:16:50.473Z,100305.81
2023-04-07T15:19:17.065Z,100306.63
2023-04-07T15:21:43.714Z,100308.81
2023-04-07T15:24:10.296Z,100311.47
2023-04-07T15:26:36.815Z,100310.84
2023-04-07T15:29:03.431Z,100311.94
2023-04-07T15:31:30.331Z,100303.91
2023-04-07T15:33:57.006Z,100313.28
2023-04-07T15:36:23.793Z,100314.72
2023-04-07T15:38:50.368Z,100323.06
2023-04-07T15:41:18.391Z,100318.16
2023-04-07T15:43:45.003Z,100313.16
2023-04-07T15:46:11.586Z,100323.00
2023-04-07T15:48:38.152Z,100318.50
2023-04-07T15:51:04.965Z,100323.00
2023-04-07T15:53:31.595Z,100326.53
2023-04-07T15:55:58.283Z,100321.63
2023-04-07T15:58:24.810Z,100320.03
2023-04-07T16:00:51.590Z,100321.47
2023-04-07T16:03:18.450Z,100326.91
2023-04-07T16:05:45.219Z,100329.47
2023-04-07T16:08:13.677Z,100329.38
2023-04-07T16:10:40.669Z,100328.50
2023-04-07T16:13:07.320Z,100323.16
2023-04-07T16:15:40.834Z,100331.41
2023-04-07T16:18:12.339Z,100333.22
2023-04-07T16:20:39.296Z,100336.88
2023-04-07T16:23:05.924Z,100341.59
2023-04-07T16:25:33.043Z,100339.66
2023-04-07T16:27:59.614Z,100340.72
2023-04-07T16:30:26.487Z,100345.22
2023-04-07T16:32:53.052Z,100356.88
2023-04-07T16:35:19.761Z,100346.44
2023-04-07T16:37:46.618Z,100361.94
2023-04-07T16:40:13.675Z,100359.25
2023-04-07T16:42:40.948Z,100353.91
2023-04-07T16:45:08.606Z,100355.09
2023-04-07T16:47:35.635Z,100355.34
2023-04-07T16:50:04.144Z,100354.69
2023-04-07T16:52:31.557Z,100359.28
2023-04-07T16:54:58.301Z,100365.59
2023-04-07T16:57:24.867Z,100362.91
2023-04-07T16:59:51.489Z,100363.03
2023-04-07T17:02:18.489Z,100362.19
2023-04-07T17:04:45.420Z,100363.03
2023-04-07T17:07:12.310Z,100359.38
2023-04-07T17:09:39.341Z,100366.31
2023-04-07T17:12:06.270Z,100375.31
2023-04-07T17:14:33.290Z,100367.19
2023-04-07T17:16:59.871Z,100369.88
2023-04-07T17:19:26.464Z,100378.84
2023-04-07T17:21:53.049Z,100375.56
2023-04-07T17:24:19.691Z,100387.19
2023-04-07T17:26:46.690Z,100390.94
2023-04-07T17:29:14.480Z,100392.13
2023-04-07T17:31:41.619Z,100386.94
2023-04-07T17:34:08.644Z,100389.56
2023-04-07T17:36:35.765Z,100392.84
2023-04-07T17:39:03.080Z,100393.72
2023-04-07T17:41:31.169Z,100395.75
2023-04-07T17:43:57.740Z,100405.59
2023-04-07T17:46:24.420Z,100404.72
2023-04-07T17:48:51.716Z,100406.53
2023-04-07T17:51:18.438Z,100423.44
2023-04-07T17:53:44.990Z,100423.63
2023-04-07T17:56:12.757Z,100425.44
2023-04-07T17:58:39.421Z,100425.56
2023-04-07T18:01:08.283Z,100436.13
2023-04-07T18:03:34.978Z,100433.56
2023-04-07T18:06:02.109Z,100439.00
2023-04-07T18:08:29.859Z,100435.47
2023-04-07T18:10:56.548Z,100435.38
2023-04-07T18:13:23.384Z,100444.34
2023-04-07T18:15:50.090Z,100450.88
2023-04-07T18:18:16.797Z,100448.53
2023-04-07T18:20:43.341Z,100452.16
2023-04-07T18:23:10.659Z,100454.19
2023-04-07T18:25:37.328Z,100453.75
2023-04-07T18:28:04.052Z,100468.16
2023-04-07T18:30:30.669Z,100464.63
2023-04-07T18:32:57.260Z,100460.16
2023-04-07T18:35:25.645Z,100464.63
2023-04-07T18:37:52.731Z,100470.81
2023-04-07T18:40:19.360Z,100469.88
2023-04-07T18:42:46.374Z,100471.56
2023-04-07T18:45:13.023Z,100470.72
2023-04-07T18:47:39.651Z,100477.78
2023-04-07T18:50:06.823Z,100482.38
2023-04-07T18:52:33.443Z,100483.44
2023-04-07T18:55:00.122Z,100490.41
2023-04-07T18:57:26.643Z,100490.28
2023-04-07T18:59:53.190Z,100484.94
2023-04-07T19:02:19.936Z,100491.22
2023-04-07T19:04:46.567Z,100484.19
2023-04-07T19:07:13.188Z,100477.03
2023-04-07T19:09:39.963Z,100478.09
2023-04-07T19:12:06.627Z,100480.88
2023-04-07T19:14:33.168Z,100480.97
2023-04-07T19:17:00.028Z,100479.25
2023-04-07T19:19:27.844Z,100487.59
2023-04-07T19:21:54.500Z,100479.66
2023-04-07T19:24:21.053Z,100483.41
2023-04-07T19:26:47.640Z,100481.69
2023-04-07T19:29:14.272Z,100498.78
2023-04-07T19:31:40.935Z,100491.72
2023-04-07T19:34:07.573Z,100496.84
2023-04-07T19:36:34.174Z,100493.22
2023-04-07T19:39:01.028Z,100494.91
2023-04-07T19:41:29.309Z,100499.63
2023-04-07T19:43:57.194Z,100503.25
2023-04-07T19:46:23.923Z,100502.59
2023-04-07T19:48:50.579Z,100504.41
2023-04-07T19:51:17.301Z,100508.03
2023-04-07T19:53:44.040Z,100512.41
2023-04-07T19:56:11.305Z,100508.91
2023-04-07T19:58:38.610Z,100514.25
2023-04-07T20:01:05.321Z,100512.63
2023-04-07T20:03:32.139Z,100506.63
2023-04-07T20:05:59.652Z,100512.06
2023-04-07T20:08:26.702Z,100511.31
2023-04-07T20:10:53.397Z,100508.84
2023-04-07T20:13:20.388Z,100505.34
2023-04-07T20:15:49.098Z,100508.94
2023-04-07T20:18:18.522Z,100504.56
2023-04-07T20:20:46.113Z,100507.22
2023-04-07T20:23:13.591Z,100509.91
2023-04-07T20:25:40.204Z,100508.94
2023-04-07T20:28:06.810Z,100518.78
2023-04-07T20:30:33.429Z,100520.47
2023-04-07T20:33:00.070Z,100525.91
2023-04-07T20:35:26.754Z,100528.91
2023-04-07T20:37:53.375Z,100528.31
2023-04-07T20:40:19.971Z,100524.03
2023-04-07T20:42:46.830Z,100522.25
2023-04-07T20:45:13.556Z,100521.38
2023-04-07T20:47:40.585Z,100517.97
2023-04-07T20:50:08.178Z,100518.13
2023-04-07T20:52:39.480Z,100518.13
2023-04-07T20:55:07.283Z,100517.50
2023-04-07T20:57:33.880Z,100516.66
2023-04-07T21:00:00.925Z,100518.34
2023-04-07T21:02:27.828Z,100519.97
2023-04-07T21:04:54.550Z,100524.44
2023-04-07T21:07:21.118Z,100517.50
2023-04-07T21:09:47.672Z,100515.03
2023-04-07T21:12:14.266Z,100520.56
2023-04-07T21:14:40.912Z,100519.72
2023-04-07T21:17:07.525Z,100523.22
2023-04-07T21:19:34.208Z,100521.81
2023-04-07T21:22:01.577Z,100521.59
2023-04-07T21:24:29.722Z,100522.75
2023-04-07T21:26:56.380Z,100527.41
2023-04-07T21:29:23.114Z,100529.44
2023-04-07T21:31:50.320Z,100529.44
2023-04-07T21:34:16.880Z,100534.84
2023-04-07T21:36:43.662Z,100536.69
2023-04-07T21:39:10.193Z,100529.91
2023-04-07T21:41:37.207Z,100526.78
2023-04-07T21:44:03.930Z,100532.97
2023-04-07T21:46:31.007Z,100534.78
2023-04-07T21:48:58.493Z,100536.41
2023-04-07T21:51:25.080Z,100537.47
2023-04-07T21:53:52.369Z,100531.34
2023-04-07T21:56:19.798Z,100539.25
2023-04-07T21:58:47.222Z,100537.53
2023-04-07T22:01:14.065Z,100542.00
2023-04-07T22:03:40.816Z,100544.78
2023-04-07T22:06:07.493Z,100546.88
2023-04-07T22:08:34.076Z,100547.94
2023-04-07T22:11:00.756Z,100542.91
2023-04-07T22:13:27.411Z,100549.16
2023-04-07T22:15:54.085Z,100545.81
2023-04-07T22:18:22.040Z,100551.16
2023-04-07T22:20:48.855Z,100550.41
2023-04-07T22:23:15.394Z,100547.81
2023-04-07T22:25:41.953Z,100541.75
2023-04-07T22:28:08.609Z,100545.38
2023-04-07T22:30:35.425Z,100548.94
2023-04-07T22:33:02.094Z,100550.78
2023-04-07T22:35:28.788Z,100548.13
2023-04-07T22:37:55.652Z,100553.53
2023-04-07T22:40:22.409Z,100550.94
2023-04-07T22:42:48.939Z,100549.25
2023-04-07T22:45:15.505Z,100556.50
2023-04-07T22:47:42.118Z,100548.56
2023-04-07T22:50:09.117Z,100552.28
2023-04-07T22:52:35.658Z,100560.47
2023-04-07T22:55:02.246Z,100561.41
2023-04-07T22:57:28.888Z,100558.75
2023-04-07T22:59:55.707Z,100559.69
2023-04-07T23:02:22.520Z,100567.59
2023-04-07T23:04:49.708Z,100564.94
2023-04-07T23:07:16.566Z,100558.00
2023-04-07T23:09:43.154Z,100558.19
2023-04-07T23:12:09.704Z,100557.31
2023-04-07T23:14:36.249Z,100555.31
2023-04-07T23:17:03.055Z,100555.25
2023-04-07T23:19:29.666Z,100555.16
2023-04-07T23:21:56.360Z,100552.38
2023-04-07T23:24:23.011Z,100561.41
2023-04-07T23:26:49.575Z,100565.03
2023-04-07T23:29:16.215Z,100555.31
2023-04-07T23:31:42.854Z,100560.56
2023-04-07T23:34:09.454Z,100561.41
2023-04-07T23:36:36.032Z,100562.19
2023-04-07T23:39:02.673Z,100557.69
2023-04-07T23:41:29.232Z,100562.09
2023-04-07T23:43:55.760Z,100563.91
2023-04-07T23:46:23.990Z,100556.78
2023-04-07T23:48:50.953Z,100559.44
2023-04-07T23:51:17.692Z,100563.81
2023-04-07T23:53:44.262Z,100567.53
2023-04-07T23:56:11.021Z,100556.94
2023-04-07T23:58:37.650Z,100563.22
